createdAt,value
2018-11-07T00:01:32.046Z,97461.18
2018-11-07T00:04:18.937Z,97457.27
2018-11-07T00:07:07.117Z,97466.56
2018-11-07T00:09:56.203Z,97462.22
2018-11-07T00:12:25.705Z,97462.16
2018-11-07T00:14:55.869Z,97460.78
2018-11-07T00:17:25.957Z,97455.41
2018-11-07T00:19:56.079Z,97459.29
2018-11-07T00:22:44.244Z,97455.02
2018-11-07T00:25:13.886Z,97457.38
2018-11-07T00:27:43.488Z,97447.02
2018-11-07T00:30:13.108Z,97449.20
2018-11-07T00:32:42.851Z,97452.76
2018-11-07T00:35:12.851Z,97449.52
2018-11-07T00:37:43.327Z,97451.25
2018-11-07T00:40:13.433Z,97442.50
2018-11-07T00:43:01.874Z,97452.43
2018-11-07T00:45:31.825Z,97464.33
2018-11-07T00:48:21.367Z,97458.12
2018-11-07T00:50:51.198Z,97458.83
2018-11-07T00:53:39.601Z,97453.02
2018-11-07T00:56:09.145Z,97452.52
2018-11-07T00:58:39.258Z,97450.49
2018-11-07T01:01:27.994Z,97451.80
2018-11-07T01:03:57.808Z,97461.27
2018-11-07T01:06:27.631Z,97460.20
2018-11-07T01:09:16.116Z,97456.23
2018-11-07T01:11:45.615Z,97459.30
2018-11-07T01:14:15.201Z,97458.83
2018-11-07T01:16:44.743Z,97458.74
2018-11-07T01:19:15.437Z,97456.48
2018-11-07T01:21:45.733Z,97456.55
2018-11-07T01:24:33.914Z,97462.22
2018-11-07T01:27:22.377Z,97461.16
2018-11-07T01:29:52.815Z,97459.49
2018-11-07T01:32:22.262Z,97461.18
2018-11-07T01:34:52.327Z,97461.75
2018-11-07T01:37:22.931Z,97456.66
2018-11-07T01:39:52.742Z,97448.08
2018-11-07T01:42:22.854Z,97454.55
2018-11-07T01:45:11.016Z,97446.15
2018-11-07T01:47:48.287Z,97451.94
2018-11-07T01:50:18.062Z,97453.81
2018-11-07T01:53:06.511Z,97446.70
2018-11-07T01:55:55.222Z,97445.49
2018-11-07T01:58:24.811Z,97447.27
2018-11-07T02:00:54.244Z,97435.11
2018-11-07T02:03:23.710Z,97436.31
2018-11-07T02:06:12.196Z,97438.31
2018-11-07T02:09:00.902Z,97435.67
2018-11-07T02:11:30.356Z,97430.50
2018-11-07T02:13:59.810Z,97430.24
2018-11-07T02:16:48.272Z,97426.68
2018-11-07T02:19:17.736Z,97426.75
2018-11-07T02:22:06.246Z,97417.23
2018-11-07T02:24:54.898Z,97415.70
2018-11-07T02:27:24.642Z,97416.16
2018-11-07T02:30:13.294Z,97414.39
2018-11-07T02:33:01.682Z,97414.16
2018-11-07T02:35:31.782Z,97420.05
2018-11-07T02:38:02.052Z,97417.39
2018-11-07T02:40:31.580Z,97419.39
2018-11-07T02:43:01.938Z,97425.86
2018-11-07T02:45:32.043Z,97422.23
2018-11-07T02:48:20.516Z,97430.69
2018-11-07T02:51:08.904Z,97425.03
2018-11-07T02:53:57.439Z,97424.61
2018-11-07T02:56:27.307Z,97421.64
2018-11-07T02:58:56.850Z,97415.39
2018-11-07T03:01:26.810Z,97428.23
2018-11-07T03:03:56.783Z,97433.55
2018-11-07T03:06:45.504Z,97434.66
2018-11-07T03:09:15.576Z,97433.27
2018-11-07T03:12:04.368Z,97432.89
2018-11-07T03:14:33.970Z,97427.14
2018-11-07T03:17:03.786Z,97425.20
2018-11-07T03:19:33.906Z,97424.16
2018-11-07T03:22:03.634Z,97424.54
2018-11-07T03:24:33.083Z,97417.09
2018-11-07T03:27:02.944Z,97416.87
2018-11-07T03:29:51.382Z,97421.86
2018-11-07T03:32:20.859Z,97409.17
2018-11-07T03:34:51.008Z,97422.02
2018-11-07T03:37:20.529Z,97426.51
2018-11-07T03:40:09.241Z,97427.73
2018-11-07T03:42:39.038Z,97425.58
2018-11-07T03:45:08.510Z,97426.45
2018-11-07T03:47:38.050Z,97427.88
2018-11-07T03:50:26.216Z,97439.17
2018-11-07T03:53:14.690Z,97437.22
2018-11-07T03:56:03.183Z,97434.73
2018-11-07T03:58:51.848Z,97432.23
2018-11-07T04:01:21.303Z,97433.80
2018-11-07T04:04:09.994Z,97446.76
2018-11-07T04:06:39.526Z,97442.15
2018-11-07T04:09:11.820Z,97434.68
2018-11-07T04:11:41.657Z,97427.17
2018-11-07T04:14:11.416Z,97433.86
2018-11-07T04:16:41.188Z,97441.53
2018-11-07T04:19:29.579Z,97441.05
2018-11-07T04:21:59.106Z,97432.00
2018-11-07T04:24:28.939Z,97435.55
2018-11-07T04:26:59.212Z,97434.25
2018-11-07T04:29:28.603Z,97430.83
2018-11-07T04:31:58.872Z,97426.72
2018-11-07T04:34:28.365Z,97422.84
2018-11-07T04:36:58.260Z,97419.60
2018-11-07T04:39:46.957Z,97416.70
2018-11-07T04:42:35.343Z,97410.98
2018-11-07T04:45:23.787Z,97419.69
2018-11-07T04:48:11.928Z,97423.31
2018-11-07T04:50:41.387Z,97426.87
2018-11-07T04:53:11.154Z,97434.39
2018-11-07T04:55:40.984Z,97434.34
2018-11-07T04:58:10.693Z,97434.16
2018-11-07T05:00:40.820Z,97421.06
2018-11-07T05:03:10.604Z,97421.12
2018-11-07T05:05:40.748Z,97428.67
2018-11-07T05:08:10.228Z,97429.32
2018-11-07T05:10:40.042Z,97435.80
2018-11-07T05:13:09.496Z,97433.88
2018-11-07T05:15:38.948Z,97432.81
2018-11-07T05:18:27.825Z,97433.14
2018-11-07T05:20:57.564Z,97433.26
2018-11-07T05:23:27.102Z,97437.75
2018-11-07T05:26:16.012Z,97438.53
2018-11-07T05:28:45.657Z,97435.80
2018-11-07T05:31:15.469Z,97437.66
2018-11-07T05:33:45.239Z,97441.22
2018-11-07T05:36:15.056Z,97444.60
2018-11-07T05:38:44.845Z,97431.83
2018-11-07T05:41:14.673Z,97424.85
2018-11-07T05:43:44.369Z,97436.48
2018-11-07T05:46:14.185Z,97438.64
2018-11-07T05:48:43.681Z,97430.62
2018-11-07T05:51:32.064Z,97437.38
2018-11-07T05:54:01.843Z,97440.39
2018-11-07T05:56:31.760Z,97442.48
2018-11-07T05:59:19.909Z,97446.23
2018-11-07T06:01:49.384Z,97443.98
2018-11-07T06:04:20.277Z,97439.03
2018-11-07T06:06:50.192Z,97438.80
2018-11-07T06:09:38.323Z,97444.92
2018-11-07T06:12:08.123Z,97437.16
2018-11-07T06:14:38.177Z,97441.89
2018-11-07T06:17:08.051Z,97446.82
2018-11-07T06:19:37.486Z,97453.03
2018-11-07T06:22:07.175Z,97460.16
2018-11-07T06:24:36.666Z,97457.15
2018-11-07T06:27:06.123Z,97461.27
2018-11-07T06:29:35.560Z,97465.64
2018-11-07T06:32:05.433Z,97464.77
2018-11-07T06:34:35.345Z,97460.06
2018-11-07T06:37:23.456Z,97463.02
2018-11-07T06:40:11.573Z,97466.31
2018-11-07T06:42:59.732Z,97463.71
2018-11-07T06:45:29.851Z,97463.22
2018-11-07T06:48:17.970Z,97468.44
2018-11-07T06:51:06.158Z,97474.97
2018-11-07T06:53:35.612Z,97482.34
2018-11-07T06:56:05.478Z,97487.88
2018-11-07T06:58:35.870Z,97484.55
2018-11-07T07:01:24.439Z,97484.59
2018-11-07T07:03:54.228Z,97482.12
2018-11-07T07:06:42.665Z,97490.64
2018-11-07T07:09:31.924Z,97488.39
2018-11-07T07:12:01.708Z,97493.59
2018-11-07T07:14:50.208Z,97502.55
2018-11-07T07:17:39.387Z,97502.47
2018-11-07T07:20:31.314Z,97500.31
2018-11-07T07:23:01.367Z,97498.94
2018-11-07T07:25:31.863Z,97488.21
2018-11-07T07:28:20.224Z,97498.08
2018-11-07T07:30:50.021Z,97506.80
2018-11-07T07:33:19.569Z,97493.58
2018-11-07T07:36:07.997Z,97501.67
2018-11-07T07:38:38.037Z,97506.61
2018-11-07T07:41:07.487Z,97497.74
2018-11-07T07:43:37.038Z,97499.44
2018-11-07T07:46:07.259Z,97488.77
2018-11-07T07:48:37.495Z,97489.44
2018-11-07T07:51:25.715Z,97482.80
2018-11-07T07:53:55.217Z,97475.62
2018-11-07T07:56:24.723Z,97487.66
2018-11-07T07:59:13.187Z,97494.08
2018-11-07T08:02:01.914Z,97496.23
2018-11-07T08:04:31.730Z,97494.37
2018-11-07T08:07:19.840Z,97488.84
2018-11-07T08:09:50.003Z,97485.94
2018-11-07T08:12:19.781Z,97491.24
2018-11-07T08:14:49.597Z,97491.60
2018-11-07T08:17:19.046Z,97491.86
2018-11-07T08:19:49.601Z,97495.22
2018-11-07T08:22:19.500Z,97499.89
2018-11-07T08:24:49.738Z,97497.23
2018-11-07T08:27:19.712Z,97497.16
2018-11-07T08:29:49.430Z,97489.36
2018-11-07T08:32:38.164Z,97484.42
2018-11-07T08:35:27.569Z,97492.68
2018-11-07T08:37:58.820Z,97483.58
2018-11-07T08:40:28.572Z,97479.05
2018-11-07T08:42:58.394Z,97481.88
2018-11-07T08:45:27.823Z,97473.88
2018-11-07T08:48:16.060Z,97476.77
2018-11-07T08:51:04.376Z,97482.80
2018-11-07T08:53:52.802Z,97485.09
2018-11-07T08:56:22.255Z,97482.38
2018-11-07T08:58:51.737Z,97481.45
2018-11-07T09:01:21.519Z,97480.16
2018-11-07T09:03:51.593Z,97473.00
2018-11-07T09:06:21.466Z,97476.00
2018-11-07T09:09:09.616Z,97472.69
2018-11-07T09:11:39.860Z,97482.83
2018-11-07T09:14:09.503Z,97489.47
2018-11-07T09:16:39.796Z,97492.02
2018-11-07T09:19:09.249Z,97483.02
2018-11-07T09:21:39.516Z,97483.36
2018-11-07T09:24:09.540Z,97492.28
2018-11-07T09:26:58.072Z,97498.91
2018-11-07T09:29:27.865Z,97493.34
2018-11-07T09:31:57.698Z,97486.53
2018-11-07T09:34:27.200Z,97487.91
2018-11-07T09:37:15.386Z,97491.17
2018-11-07T09:39:45.583Z,97482.89
2018-11-07T09:42:15.453Z,97479.52
2018-11-07T09:45:04.009Z,97474.82
2018-11-07T09:47:52.401Z,97480.36
2018-11-07T09:50:40.822Z,97471.53
2018-11-07T09:53:10.981Z,97472.81
2018-11-07T09:55:59.160Z,97475.95
2018-11-07T09:58:47.840Z,97470.80
2018-11-07T10:01:18.008Z,97474.25
2018-11-07T10:03:47.446Z,97476.67
2018-11-07T10:06:16.895Z,97467.82
2018-11-07T10:09:05.308Z,97465.28
2018-11-07T10:11:53.731Z,97465.95
2018-11-07T10:14:42.522Z,97465.73
2018-11-07T10:17:30.676Z,97455.81
2018-11-07T10:20:00.414Z,97455.26
2018-11-07T10:22:30.250Z,97450.14
2018-11-07T10:25:00.246Z,97443.90
2018-11-07T10:27:49.323Z,97441.23
2018-11-07T10:30:20.488Z,97436.80
2018-11-07T10:32:50.560Z,97432.02
2018-11-07T10:35:20.058Z,97434.84
2018-11-07T10:37:49.646Z,97425.30
2018-11-07T10:40:23.340Z,97428.41
2018-11-07T10:42:53.083Z,97426.70
2018-11-07T10:45:22.558Z,97429.02
2018-11-07T10:47:52.509Z,97426.83
2018-11-07T10:50:22.633Z,97428.02
2018-11-07T10:52:52.332Z,97427.84
2018-11-07T10:55:22.406Z,97432.36
2018-11-07T10:57:51.898Z,97428.25
2018-11-07T11:00:38.629Z,97430.00
2018-11-07T11:03:25.518Z,97427.89
2018-11-07T11:05:55.317Z,97426.78
2018-11-07T11:08:25.900Z,97423.82
2018-11-07T11:10:55.425Z,97424.14
2018-11-07T11:13:25.601Z,97424.22
2018-11-07T11:15:55.103Z,97418.89
2018-11-07T11:18:24.575Z,97416.93
2018-11-07T11:20:54.015Z,97413.58
2018-11-07T11:23:23.827Z,97416.83
2018-11-07T11:25:53.634Z,97419.08
2018-11-07T11:28:23.724Z,97419.08
2018-11-07T11:30:53.935Z,97412.81
2018-11-07T11:33:23.666Z,97414.66
2018-11-07T11:35:53.711Z,97400.98
2018-11-07T11:38:23.201Z,97408.73
2018-11-07T11:40:52.855Z,97408.73
2018-11-07T11:43:22.923Z,97402.48
2018-11-07T11:45:52.663Z,97405.98
2018-11-07T11:48:22.604Z,97376.84
2018-11-07T11:50:52.581Z,97376.84
2018-11-07T11:53:22.366Z,97386.29
2018-11-07T11:55:52.891Z,97386.29
2018-11-07T11:58:22.759Z,97388.89
2018-11-07T12:00:52.233Z,97383.51
2018-11-07T12:03:22.024Z,97391.54
2018-11-07T12:05:52.859Z,97391.54
2018-11-07T12:08:22.827Z,97373.56
2018-11-07T12:10:52.179Z,97382.33
2018-11-07T12:13:22.007Z,97384.16
2018-11-07T12:15:51.724Z,97384.16
2018-11-07T12:18:21.186Z,97367.12
2018-11-07T12:20:51.327Z,97367.12
2018-11-07T12:23:21.077Z,97357.61
2018-11-07T12:25:51.116Z,97374.37
2018-11-07T12:28:20.568Z,97374.37
2018-11-07T12:30:50.316Z,97364.22
2018-11-07T12:33:20.144Z,97364.22
2018-11-07T12:35:50.986Z,97375.59
2018-11-07T12:38:21.091Z,97372.16
2018-11-07T12:40:51.266Z,97369.46
2018-11-07T12:43:21.482Z,97369.46
2018-11-07T12:45:50.991Z,97367.94
2018-11-07T12:48:20.423Z,97378.87
2018-11-07T12:50:49.908Z,97378.87
2018-11-07T12:53:20.011Z,97380.42
2018-11-07T12:55:49.450Z,97380.42
2018-11-07T12:58:19.417Z,97375.00
2018-11-07T13:00:49.360Z,97346.91
2018-11-07T13:03:19.528Z,97346.91
2018-11-07T13:05:49.714Z,97376.18
2018-11-07T13:08:19.881Z,97364.05
2018-11-07T13:10:49.722Z,97364.05
2018-11-07T13:13:19.159Z,97385.05
2018-11-07T13:15:49.027Z,97381.43
2018-11-07T13:18:18.786Z,97380.36
2018-11-07T13:20:48.637Z,97367.70
2018-11-07T13:23:18.052Z,97375.23
2018-11-07T13:25:48.782Z,97372.45
2018-11-07T13:28:18.787Z,97384.08
2018-11-07T13:30:48.745Z,97376.59
2018-11-07T13:33:18.662Z,97378.99
2018-11-07T13:35:48.097Z,97378.70
2018-11-07T13:38:18.784Z,97378.59
2018-11-07T13:40:48.047Z,97384.27
2018-11-07T13:43:17.473Z,97384.27
2018-11-07T13:45:48.396Z,97405.37
2018-11-07T13:48:17.754Z,97394.25
2018-11-07T13:50:47.239Z,97392.60
2018-11-07T13:53:16.729Z,97392.60
2018-11-07T13:55:48.719Z,97401.22
2018-11-07T13:58:18.539Z,97402.09
2018-11-07T14:00:48.782Z,97394.20
2018-11-07T14:03:18.400Z,97412.73
2018-11-07T14:05:48.024Z,97403.03
2018-11-07T14:08:17.836Z,97403.03
2018-11-07T14:10:47.734Z,97415.69
2018-11-07T14:13:17.194Z,97423.73
2018-11-07T14:15:47.047Z,97410.58
2018-11-07T14:18:16.497Z,97431.19
2018-11-07T14:20:46.259Z,97426.14
2018-11-07T14:23:16.022Z,97426.14
2018-11-07T14:25:45.785Z,97448.02
2018-11-07T14:28:15.590Z,97430.69
2018-11-07T14:30:45.132Z,97444.64
2018-11-07T14:33:14.946Z,97444.64
2018-11-07T14:35:45.690Z,97446.70
2018-11-07T14:38:15.185Z,97439.45
2018-11-07T14:40:45.412Z,97453.06
2018-11-07T14:43:14.955Z,97453.86
2018-11-07T14:45:45.171Z,97453.86
2018-11-07T14:48:15.072Z,97463.23
2018-11-07T14:50:44.523Z,97463.23
2018-11-07T14:53:14.490Z,97462.06
2018-11-07T14:55:44.020Z,97460.05
2018-11-07T14:58:13.890Z,97477.13
2018-11-07T15:00:43.851Z,97477.13
2018-11-07T15:03:13.326Z,97473.03
2018-11-07T15:05:43.004Z,97473.03
2018-11-07T15:08:12.378Z,97472.58
2018-11-07T15:10:42.191Z,97480.32
2018-11-07T15:13:12.045Z,97480.32
2018-11-07T15:15:41.533Z,97481.56
2018-11-07T15:18:11.062Z,97481.56
2018-11-07T15:20:40.838Z,97488.84
2018-11-07T15:23:10.614Z,97488.84
2018-11-07T15:25:40.367Z,97496.80
2018-11-07T15:28:09.832Z,97492.55
2018-11-07T15:30:39.816Z,97494.30
2018-11-07T15:33:09.365Z,97494.30
2018-11-07T15:35:40.126Z,97512.42
2018-11-07T15:38:09.980Z,97521.77
2018-11-07T15:40:40.112Z,97521.77
2018-11-07T15:43:09.943Z,97523.05
2018-11-07T15:45:39.778Z,97522.84
2018-11-07T15:48:10.046Z,97530.11
2018-11-07T15:50:57.447Z,97532.20
2018-11-07T15:53:27.724Z,97535.28
2018-11-07T15:55:57.170Z,97538.97
2018-11-07T15:58:26.652Z,97537.27
2018-11-07T16:00:56.889Z,97545.91
2018-11-07T16:03:44.296Z,97547.75
2018-11-07T16:06:13.912Z,97548.22
2018-11-07T16:08:43.851Z,97552.59
2018-11-07T16:11:14.214Z,97553.73
2018-11-07T16:13:44.000Z,97558.22
2018-11-07T16:16:14.259Z,97567.90
2018-11-07T16:18:44.009Z,97571.67
2018-11-07T16:21:14.112Z,97573.06
2018-11-07T16:23:44.371Z,97573.75
2018-11-07T16:26:14.246Z,97569.36
2018-11-07T16:28:44.141Z,97575.37
2018-11-07T16:31:14.285Z,97579.05
2018-11-07T16:33:44.760Z,97593.82
2018-11-07T16:36:14.521Z,97593.02
2018-11-07T16:38:44.489Z,97589.12
2018-11-07T16:41:14.319Z,97597.84
2018-11-07T16:43:43.861Z,97596.12
2018-11-07T16:46:13.642Z,97602.81
2018-11-07T16:48:43.376Z,97603.91
2018-11-07T16:51:13.681Z,97613.00
2018-11-07T16:53:43.582Z,97610.66
2018-11-07T16:56:13.385Z,97623.55
2018-11-07T16:58:43.527Z,97622.91
2018-11-07T17:01:13.270Z,97626.73
2018-11-07T17:03:43.071Z,97629.72
2018-11-07T17:06:13.334Z,97640.60
2018-11-07T17:08:42.777Z,97644.22
2018-11-07T17:11:12.821Z,97652.66
2018-11-07T17:13:42.615Z,97658.52
2018-11-07T17:16:12.797Z,97662.75
2018-11-07T17:18:42.830Z,97673.34
2018-11-07T17:21:12.771Z,97672.20
2018-11-07T17:23:42.482Z,97670.52
2018-11-07T17:26:12.719Z,97666.22
2018-11-07T17:28:43.020Z,97671.18
2018-11-07T17:31:13.467Z,97674.32
2018-11-07T17:33:42.928Z,97684.50
2018-11-07T17:36:12.759Z,97685.55
2018-11-07T17:38:42.582Z,97693.59
2018-11-07T17:41:12.683Z,97695.80
2018-11-07T17:43:42.872Z,97692.65
2018-11-07T17:46:12.541Z,97701.24
2018-11-07T17:48:42.472Z,97703.56
2018-11-07T17:51:12.672Z,97704.56
2018-11-07T17:53:42.718Z,97710.38
2018-11-07T17:56:13.262Z,97713.44
2018-11-07T17:58:42.768Z,97712.78
2018-11-07T18:01:12.696Z,97715.16
2018-11-07T18:06:15.982Z,97718.15
2018-11-07T18:08:53.057Z,97725.19
2018-11-07T18:11:16.248Z,97728.47
2018-11-07T18:13:46.773Z,97726.91
2018-11-07T18:16:16.678Z,97733.69
2018-11-07T18:18:47.477Z,97733.85
2018-11-07T18:21:16.935Z,97734.20
2018-11-07T18:23:46.751Z,97743.14
2018-11-07T18:26:16.196Z,97743.81
2018-11-07T18:28:48.068Z,97739.44
2018-11-07T18:31:18.230Z,97743.10
2018-11-07T18:33:48.170Z,97744.01
2018-11-07T18:36:18.353Z,97757.53
2018-11-07T18:38:48.266Z,97758.15
2018-11-07T18:41:17.937Z,97757.84
2018-11-07T18:43:56.826Z,97767.47
2018-11-07T18:46:26.612Z,97770.63
2018-11-07T18:48:56.162Z,97774.77
2018-11-07T18:51:25.942Z,97778.58
2018-11-07T18:53:55.660Z,97776.41
2018-11-07T18:56:25.785Z,97781.73
2018-11-07T18:58:56.247Z,97785.09
2018-11-07T19:01:25.518Z,97786.35
2018-11-07T19:03:54.987Z,97787.55
2018-11-07T19:06:24.621Z,97789.04
2018-11-07T19:08:54.283Z,97794.73
2018-11-07T19:11:23.805Z,97796.59
2018-11-07T19:13:53.222Z,97804.00
2018-11-07T19:16:23.334Z,97798.00
2018-11-07T19:18:53.405Z,97802.61
2018-11-07T19:21:23.781Z,97804.06
2018-11-07T19:23:53.684Z,97806.03
2018-11-07T19:26:23.599Z,97815.81
2018-11-07T19:28:53.450Z,97817.94
2018-11-07T19:31:23.203Z,97814.78
2018-11-07T19:33:53.148Z,97821.19
2018-11-07T19:36:23.013Z,97821.97
2018-11-07T19:38:52.952Z,97826.20
2018-11-07T19:41:23.498Z,97831.45
2018-11-07T19:43:53.651Z,97834.38
2018-11-07T19:46:23.478Z,97834.05
2018-11-07T19:48:53.865Z,97841.91
2018-11-07T19:51:23.822Z,97845.58
2018-11-07T19:53:54.003Z,97837.88
2018-11-07T19:56:23.438Z,97844.12
2018-11-07T19:58:54.517Z,97843.53
2018-11-07T20:01:24.090Z,97845.72
2018-11-07T20:03:53.635Z,97847.42
2018-11-07T20:06:23.173Z,97852.20
2018-11-07T20:08:53.430Z,97850.02
2018-11-07T20:11:23.618Z,97859.67
2018-11-07T20:13:53.110Z,97862.75
2018-11-07T20:16:32.064Z,97864.63
2018-11-07T20:19:02.131Z,97867.77
2018-11-07T20:21:33.308Z,97869.97
2018-11-07T20:24:03.670Z,97875.72
2018-11-07T20:26:33.941Z,97875.72
2018-11-07T20:29:05.265Z,97882.52
2018-11-07T20:31:34.888Z,97891.67
2018-11-07T20:34:05.331Z,97885.91
2018-11-07T20:36:35.790Z,97890.69
2018-11-07T20:39:07.581Z,97891.53
2018-11-07T20:41:38.340Z,97888.11
2018-11-07T20:44:08.683Z,97891.86
2018-11-07T20:46:38.902Z,97903.84
2018-11-07T20:49:08.987Z,97895.56
2018-11-07T20:51:39.157Z,97904.58
2018-11-07T20:54:09.316Z,97907.08
2018-11-07T20:56:39.132Z,97908.23
2018-11-07T20:59:09.123Z,97908.97
2018-11-07T21:01:39.069Z,97909.30
2018-11-07T21:04:08.949Z,97908.80
2018-11-07T21:06:38.833Z,97910.74
2018-11-07T21:09:10.931Z,97916.91
2018-11-07T21:11:40.576Z,97916.81
2018-11-07T21:14:10.123Z,97924.45
2018-11-07T21:16:39.709Z,97926.56
2018-11-07T21:19:09.448Z,97928.02
2018-11-07T21:21:38.924Z,97931.67
2018-11-07T21:24:08.385Z,97936.69
2018-11-07T21:26:37.881Z,97936.03
2018-11-07T21:29:07.825Z,97941.46
2018-11-07T21:31:38.096Z,97945.70
2018-11-07T21:34:07.602Z,97949.50
2018-11-07T21:36:37.109Z,97949.92
2018-11-07T21:39:10.195Z,97952.52
2018-11-07T21:41:40.265Z,97956.45
2018-11-07T21:44:09.833Z,97968.30
2018-11-07T21:46:39.355Z,97970.17
2018-11-07T21:49:10.456Z,97968.56
2018-11-07T21:51:40.224Z,97973.75
2018-11-07T21:54:10.031Z,97971.81
2018-11-07T21:56:40.630Z,97976.41
2018-11-07T21:59:14.012Z,97974.22
2018-11-07T22:01:44.482Z,97978.28
2018-11-07T22:04:14.417Z,97970.08
2018-11-07T22:06:44.307Z,97974.88
2018-11-07T22:09:13.762Z,97979.80
2018-11-07T22:11:46.595Z,97976.48
2018-11-07T22:14:21.408Z,97978.91
2018-11-07T22:16:52.853Z,97976.97
2018-11-07T22:19:23.005Z,97977.27
2018-11-07T22:21:53.431Z,97977.37
2018-11-07T22:24:24.511Z,97976.64
2018-11-07T22:26:54.588Z,97977.20
2018-11-07T22:29:24.412Z,97988.72
2018-11-07T22:31:53.929Z,97989.17
2018-11-07T22:34:23.374Z,97988.29
2018-11-07T22:36:53.683Z,97991.93
2018-11-07T22:39:23.156Z,98001.52
2018-11-07T22:41:52.673Z,98000.30
2018-11-07T22:44:23.162Z,98006.59
2018-11-07T22:46:53.514Z,98009.67
2018-11-07T22:49:23.307Z,98010.17
2018-11-07T22:51:52.869Z,98005.71
2018-11-07T22:54:22.794Z,98015.68
2018-11-07T22:56:52.572Z,98004.04
2018-11-07T22:59:22.720Z,98006.30
2018-11-07T23:01:52.846Z,98009.84
2018-11-07T23:04:22.600Z,98000.62
2018-11-07T23:06:52.408Z,98002.66
2018-11-07T23:09:21.874Z,98002.11
2018-11-07T23:11:51.617Z,98004.08
2018-11-07T23:14:21.865Z,98000.50
2018-11-07T23:16:51.658Z,98007.48
2018-11-07T23:19:21.510Z,98004.05
2018-11-07T23:21:51.354Z,98008.67
2018-11-07T23:24:21.501Z,98004.70
2018-11-07T23:26:52.074Z,98010.70
2018-11-07T23:29:22.296Z,98013.27
2018-11-07T23:32:10.769Z,98019.48
2018-11-07T23:34:40.582Z,98028.58
2018-11-07T23:37:11.403Z,98028.08
2018-11-07T23:39:41.460Z,98029.46
2018-11-07T23:42:11.197Z,98031.98
2018-11-07T23:44:40.640Z,98038.61
2018-11-07T23:47:10.572Z,98039.92
2018-11-07T23:49:40.382Z,98040.59
2018-11-07T23:52:10.837Z,98039.45
2018-11-07T23:54:40.645Z,98044.66
2018-11-07T23:57:10.947Z,98043.29
2018-11-07T23:59:40.697Z,98049.02
